createdAt,value
2022-11-28T00:05:59.048Z,8.3
2022-11-28T00:21:15.023Z,9.4
2022-11-28T00:36:24.845Z,8.4
2022-11-28T00:51:34.704Z,9.2
2022-11-28T01:06:44.922Z,5.2
2022-11-28T01:21:57.783Z,7.1
2022-11-28T01:37:13.906Z,7.9
2022-11-28T01:52:29.668Z,6.4
2022-11-28T02:07:48.959Z,12.1
2022-11-28T02:22:59.874Z,6.3
2022-11-28T02:38:12.375Z,6.4
2022-11-28T02:53:22.710Z,5.7
2022-11-28T03:08:34.801Z,6.1
2022-11-28T03:23:44.832Z,7.4
2022-11-28T03:38:55.013Z,8.3
2022-11-28T03:54:05.106Z,8.4
2022-11-28T04:09:15.445Z,8.5
2022-11-28T04:24:28.962Z,6.8
2022-11-28T04:39:42.375Z,7.1
2022-11-28T04:54:52.821Z,7.2
2022-11-28T05:10:02.963Z,7.1
2022-11-28T05:25:13.104Z,8.2
2022-11-28T05:40:23.452Z,11
2022-11-28T05:55:33.471Z,9.1
2022-11-28T06:10:43.419Z,6.5
2022-11-28T06:25:53.642Z,8.3
2022-11-28T06:41:03.993Z,6.6
2022-11-28T06:56:13.982Z,10.2
2022-11-28T07:11:24.511Z,8.4
2022-11-28T07:28:55.410Z,7.9
2022-11-28T07:44:06.687Z,9.4
2022-11-28T07:59:16.385Z,8.7
2022-11-28T08:14:28.562Z,9
2022-11-28T08:29:37.286Z,15
2022-11-28T08:44:46.360Z,9.9
2022-11-28T08:59:55.834Z,10.3
2022-11-28T09:15:07.230Z,12
2022-11-28T09:30:19.889Z,9.6
2022-11-28T09:45:29.648Z,13.5
2022-11-28T10:00:43.170Z,9.1
2022-11-28T10:15:52.979Z,10.7
2022-11-28T10:31:02.546Z,11.6
2022-11-28T10:46:13.832Z,9.7
2022-11-28T11:01:27.104Z,10.4
2022-11-28T11:16:37.207Z,13.3
2022-11-28T11:31:49.858Z,12.3
2022-11-28T11:46:59.741Z,11.3
2022-11-28T12:02:09.069Z,9.8
2022-11-28T12:17:54.620Z,11.1
2022-11-28T12:33:11.293Z,14.4
2022-11-28T12:48:21.142Z,13.4
2022-11-28T13:03:31.384Z,10
2022-11-28T13:18:41.173Z,11.7
2022-11-28T13:33:50.741Z,12.2
2022-11-28T13:49:21.663Z,11.8
2022-11-28T14:04:31.516Z,14.9
2022-11-28T14:19:40.893Z,16.8
2022-11-28T14:34:50.389Z,14.1
2022-11-28T14:50:00.278Z,18.3
2022-11-28T15:05:13.699Z,11.5
2022-11-28T15:20:23.358Z,27.4
2022-11-28T15:35:33.062Z,14.7
2022-11-28T15:50:42.602Z,18.3
2022-11-28T16:05:52.306Z,12.8
2022-11-28T16:21:01.724Z,15.5
2022-11-28T16:36:13.431Z,14.2
2022-11-28T16:51:23.176Z,17.7
2022-11-28T17:06:32.563Z,18.2
2022-11-28T17:21:42.252Z,22.4
2022-11-28T17:36:51.742Z,18.7
2022-11-28T17:52:01.501Z,22.2
2022-11-28T18:07:14.225Z,17.9
2022-11-28T18:22:24.194Z,19.1
2022-11-28T18:37:33.525Z,18.4
2022-11-28T18:52:43.668Z,18.7
2022-11-28T19:07:53.047Z,23
2022-11-28T19:23:02.332Z,19.2
2022-11-28T19:38:13.952Z,22.7
2022-11-28T19:53:23.411Z,17.3
2022-11-28T20:08:33.057Z,18.6
2022-11-28T20:23:42.121Z,15.1
2022-11-28T20:38:50.907Z,18.5
2022-11-28T20:54:00.130Z,23.8
2022-11-28T21:09:10.619Z,22.9
2022-11-28T21:24:20.387Z,20.7
2022-11-28T21:39:30.011Z,19.7
2022-11-28T21:54:42.009Z,17.7
2022-11-28T22:09:51.037Z,18.2
2022-11-28T22:25:00.863Z,20.1
2022-11-28T22:40:14.395Z,20.8
2022-11-28T22:55:24.078Z,23.5
2022-11-28T23:10:33.773Z,20
2022-11-28T23:25:43.567Z,21.5
2022-11-28T23:40:53.042Z,21.6
2022-11-28T23:56:02.112Z,18.4
